Time;durP1;ratioP1;P1;durP2;ratioP2;P2;SDS_P1;SDS_P2;PMS_P1;PMS_P2;Temp;Humidity;BMP_temperature;BMP_pressure;BME280_temperature;BME280_humidity;BME280_pressure;Samples;Min_cycle;Max_cycle;Signal;HPM_P1;HPM_P2
2024/03/14 00:00:54;;;;;;;12.63;7.25;;;;;;;-145.63;38.81;39212.00;5031974;28;20126;-66
2024/03/14 00:03:38;;;;;;;10.52;7.38;;;;;;;-145.63;39.28;39192.44;5031975;28;20053;-65
2024/03/14 00:06:04;;;;;;;10.27;7.10;;;;;;;-145.63;39.69;39186.56;4993486;28;20026;-65
2024/03/14 00:08:29;;;;;;;11.43;6.70;;;;;;;-145.63;40.39;39196.34;5010774;28;20030;-65
2024/03/14 00:11:14;;;;;;;11.57;6.80;;;;;;;-145.63;39.43;39208.06;5018053;28;20430;-66
2024/03/14 00:14:17;;;;;;;12.13;6.57;;;;;;;-145.63;39.26;39151.38;5020367;28;20056;-66
2024/03/14 00:16:54;;;;;;;8.60;6.05;;;;;;;-145.63;39.76;39202.22;5023662;28;20025;-66
2024/03/14 00:19:28;;;;;;;11.57;6.63;;;;;;;-145.63;39.50;39165.06;5015506;28;20033;-67
2024/03/14 00:22:09;;;;;;;13.35;6.90;;;;;;;-145.63;39.51;39206.13;5032950;28;20048;-66
2024/03/14 00:24:46;;;;;;;14.43;6.55;;;;;;;-145.63;39.77;39200.25;5031700;28;20370;-65
2024/03/14 00:27:15;;;;;;;9.52;6.35;;;;;;;-145.63;39.58;39196.34;5026880;28;20041;-67
2024/03/14 00:29:41;;;;;;;11.18;6.25;;;;;;;-145.63;39.26;39178.75;5033033;28;20060;-67
2024/03/14 00:32:10;;;;;;;10.13;6.88;;;;;;;-145.63;39.20;39165.06;5034006;28;20068;-66
2024/03/14 00:34:51;;;;;;;11.70;7.03;;;;;;;-145.63;39.43;39200.25;5012680;28;20074;-68
2024/03/14 00:37:37;;;;;;;12.77;6.70;;;;;;;-145.63;39.34;39184.59;5008260;28;20476;-67
2024/03/14 00:40:31;;;;;;;11.88;7.00;;;;;;;-145.63;39.90;39170.91;5001127;28;20044;-68
2024/03/14 00:43:21;;;;;;;10.93;6.47;;;;;;;-145.63;39.76;39200.25;5013830;28;20127;-68
2024/03/14 00:46:02;;;;;;;12.73;7.20;;;;;;;-145.63;40.30;39194.38;5013661;28;20064;-67
2024/03/14 00:48:43;;;;;;;10.65;6.40;;;;;;;-145.63;39.97;39178.75;5012291;28;20038;-68
2024/03/14 00:51:12;;;;;;;9.38;6.03;;;;;;;-145.63;40.37;39219.81;5014240;28;20033;-66
2024/03/14 00:54:18;;;;;;;10.40;6.88;;;;;;;-145.63;39.81;39186.56;5032311;28;20037;-66
2024/03/14 00:56:53;;;;;;;10.75;6.32;;;;;;;-145.63;40.10;39192.44;5017219;28;20034;-66
2024/03/14 00:59:21;;;;;;;13.90;6.68;;;;;;;-145.63;40.28;39184.59;5016989;28;20026;-66
2024/03/14 01:01:47;;;;;;;12.10;6.80;;;;;;;-145.63;40.26;39190.47;5016795;28;20096;-65
2024/03/14 01:04:22;;;;;;;10.63;6.35;;;;;;;-145.63;40.41;39184.59;5016814;28;20398;-66
2024/03/14 01:06:55;;;;;;;14.90;7.63;;;;;;;-145.63;40.48;39184.59;5016813;28;20032;-66
2024/03/14 01:09:45;;;;;;;11.80;6.68;;;;;;;-145.63;40.70;39202.22;5015562;28;20030;-66
2024/03/14 01:12:10;;;;;;;10.73;6.63;;;;;;;-145.63;41.04;39182.66;5016226;28;20053;-66
2024/03/14 01:14:36;;;;;;;13.65;7.40;;;;;;;-145.63;40.43;39174.84;5016538;28;20451;-67
2024/03/14 01:17:02;;;;;;;11.88;7.20;;;;;;;-145.63;40.23;39184.59;5011766;28;20034;-66
2024/03/14 01:19:46;;;;;;;11.05;7.18;;;;;;;-145.63;40.69;39180.69;5005878;28;20030;-66
2024/03/14 01:22:33;;;;;;;10.27;7.18;;;;;;;-145.63;40.76;39163.09;5015693;28;20416;-64
2024/03/14 01:27:58;;;;;;;10.07;6.93;;;;;;;-145.63;40.85;39172.88;5030822;28;20049;-66
2024/03/14 01:30:28;;;;;;;13.35;7.43;;;;;;;-145.63;40.47;39186.56;5035836;28;20410;-67
2024/03/14 01:33:11;;;;;;;13.18;7.25;;;;;;;-145.63;41.50;39172.88;5016709;28;20053;-65
2024/03/14 01:39:17;;;;;;;13.50;7.60;;;;;;;-145.63;40.77;39192.44;4996842;28;20088;-66
2024/03/14 01:42:01;;;;;;;14.30;7.53;;;;;;;-145.63;40.91;39188.53;5014196;28;20068;-65
2024/03/14 01:45:09;;;;;;;13.02;6.95;;;;;;;-145.63;41.29;39180.69;5016429;28;20108;-66
2024/03/14 01:48:02;;;;;;;11.05;7.53;;;;;;;-145.63;40.96;39147.44;5014693;28;20065;-66
2024/03/14 01:50:27;;;;;;;12.93;8.05;;;;;;;-145.63;41.19;39178.75;4998203;28;20048;-65
2024/03/14 01:53:14;;;;;;;13.43;8.15;;;;;;;-145.63;41.90;39170.91;5015808;28;20034;-65
2024/03/14 01:55:42;;;;;;;13.80;7.70;;;;;;;-145.63;41.67;39184.59;5011208;28;20085;-66
2024/03/14 01:58:22;;;;;;;13.63;8.10;;;;;;;-145.63;41.91;39206.13;5001326;28;20029;-66
2024/03/14 02:01:12;;;;;;;15.32;8.57;;;;;;;-145.63;41.82;39157.22;5015750;28;20076;-66
2024/03/14 02:03:45;;;;;;;15.30;8.40;;;;;;;-145.63;41.29;39190.47;5014340;28;20088;-66
2024/03/14 02:06:23;;;;;;;13.30;8.38;;;;;;;-145.63;42.41;39168.97;5014782;28;20467;-67
2024/03/14 02:08:55;;;;;;;15.75;8.98;;;;;;;-145.63;42.24;39188.53;5014373;28;20065;-66
2024/03/14 02:11:51;;;;;;;15.35;8.48;;;;;;;-145.63;42.05;39155.28;5015447;28;20416;-65
2024/03/14 02:17:37;;;;;;;14.68;9.18;;;;;;;-145.63;42.79;39186.56;5015409;28;20546;-65
2024/03/14 02:20:14;;;;;;;14.75;9.45;;;;;;;-145.63;42.09;39170.91;5015017;28;20029;-66
2024/03/14 02:22:40;;;;;;;17.73;10.23;;;;;;;-145.63;42.17;39159.19;5014147;28;20041;-65
2024/03/14 02:25:13;;;;;;;15.80;9.90;;;;;;;-145.63;42.08;39172.88;5010516;28;20026;-66
2024/03/14 02:27:51;;;;;;;15.63;9.30;;;;;;;-145.63;41.53;39176.78;4996525;28;20034;-66
2024/03/14 02:30:40;;;;;;;16.40;10.30;;;;;;;-145.63;42.64;39176.78;5035180;28;20026;-66
2024/03/14 02:33:11;;;;;;;17.35;9.98;;;;;;;-145.63;42.67;39192.44;4995867;28;20037;-67
2024/03/14 02:35:55;;;;;;;17.90;10.68;;;;;;;-145.63;42.26;39151.38;5012246;28;20128;-65
2024/03/14 02:38:39;;;;;;;17.88;11.32;;;;;;;-145.63;42.77;39176.78;5015721;28;20049;-65
2024/03/14 02:41:23;;;;;;;16.58;10.88;;;;;;;-145.63;42.69;39153.31;5015317;28;20030;-65
2024/03/14 02:43:52;;;;;;;17.25;11.40;;;;;;;-145.63;42.89;39159.19;5015008;28;20042;-66
2024/03/14 02:46:43;;;;;;;15.75;10.55;;;;;;;-145.63;42.94;39196.34;5020516;28;20021;-65
2024/03/14 02:49:27;;;;;;;18.23;11.45;;;;;;;-145.63;42.77;39180.69;5028354;28;20228;-66
2024/03/14 02:55:10;;;;;;;18.63;11.13;;;;;;;-145.63;42.31;39125.94;5014656;28;20030;-65
2024/03/14 02:57:39;;;;;;;18.08;11.57;;;;;;;-145.63;42.70;39174.84;5013473;28;20061;-66
2024/03/14 03:03:23;;;;;;;18.27;11.38;;;;;;;-145.63;43.26;39188.53;4994838;28;20033;-66
2024/03/14 03:05:51;;;;;;;18.10;11.75;;;;;;;-145.63;42.79;39208.06;5012322;28;20030;-66
2024/03/14 03:08:38;;;;;;;18.17;11.27;;;;;;;-145.63;43.29;39176.78;5014244;28;20053;-66
2024/03/14 03:11:10;;;;;;;17.08;10.68;;;;;;;-145.63;43.62;39170.91;5014102;28;20037;-66
2024/03/14 03:13:57;;;;;;;21.77;12.35;;;;;;;-145.63;44.16;39178.75;5013347;28;20551;-66
2024/03/14 03:17:12;;;;;;;21.95;12.20;;;;;;;-145.63;44.56;39184.59;4996394;28;20096;-65
2024/03/14 03:19:37;;;;;;;21.38;11.90;;;;;;;-145.63;44.72;39149.41;5014328;28;20056;-65
2024/03/14 03:22:06;;;;;;;16.85;11.77;;;;;;;-145.63;44.94;39172.88;5013766;28;20026;-65
2024/03/14 03:24:37;;;;;;;20.33;12.55;;;;;;;-145.63;44.85;39145.50;5014511;28;20112;-66
2024/03/14 03:27:15;;;;;;;22.17;12.38;;;;;;;-145.63;45.32;39137.69;5002388;28;20112;-65
2024/03/14 03:29:53;;;;;;;20.33;12.40;;;;;;;-145.63;44.96;39133.75;5013231;28;20124;-66
2024/03/14 03:32:44;;;;;;;19.92;12.57;;;;;;;-145.63;44.99;39194.38;5014310;28;20049;-67
2024/03/14 03:35:18;;;;;;;21.20;12.75;;;;;;;-145.63;44.61;39153.31;5014325;28;20543;-68
2024/03/14 03:37:52;;;;;;;21.13;12.18;;;;;;;-145.63;44.25;39167.00;5013904;28;20041;-66
2024/03/14 03:40:24;;;;;;;24.08;12.15;;;;;;;-145.63;44.36;39149.41;5013817;28;20550;-67
2024/03/14 03:46:17;;;;;;;22.02;13.13;;;;;;;-145.63;45.09;39157.22;5014090;28;20037;-66
2024/03/14 03:49:21;;;;;;;22.02;12.98;;;;;;;-145.63;44.90;39157.22;4994568;28;20069;-68
2024/03/14 03:52:08;;;;;;;22.58;13.55;;;;;;;-145.63;44.41;39143.53;4997204;28;20080;-67
2024/03/14 03:54:34;;;;;;;20.95;13.25;;;;;;;-145.63;44.93;39143.53;5014062;28;20041;-68
2024/03/14 03:57:10;;;;;;;19.40;12.82;;;;;;;-145.63;44.90;39165.06;5013765;28;20029;-67
2024/03/14 03:59:44;;;;;;;25.23;13.73;;;;;;;-145.63;44.84;39145.50;5013526;28;20030;-66
2024/03/14 04:02:29;;;;;;;22.00;13.32;;;;;;;-145.63;44.50;39165.06;5013438;28;20033;-66
2024/03/14 04:05:09;;;;;;;23.10;12.75;;;;;;;-145.63;44.94;39122.03;5023448;28;20099;-66
2024/03/14 04:07:49;;;;;;;22.10;13.60;;;;;;;-145.63;44.80;39184.59;5024433;28;20037;-66
2024/03/14 04:10:37;;;;;;;24.15;14.13;;;;;;;-145.63;44.63;39129.84;5018035;28;20116;-66
2024/03/14 04:13:14;;;;;;;22.83;13.38;;;;;;;-145.63;45.11;39098.56;5030000;28;20034;-65
2024/03/14 04:15:43;;;;;;;23.33;14.20;;;;;;;-145.63;45.24;39100.50;5013671;28;20057;-65
2024/03/14 04:18:11;;;;;;;24.88;14.35;;;;;;;-145.63;45.77;39106.38;4993923;28;20027;-65
2024/03/14 04:20:58;;;;;;;20.73;13.77;;;;;;;-145.63;45.13;39147.44;5009772;28;20030;-65
2024/03/14 04:23:36;;;;;;;22.98;13.48;;;;;;;-145.63;44.95;39112.25;5013027;28;20064;-64
2024/03/14 04:26:26;;;;;;;24.55;15.43;;;;;;;-145.63;44.71;39090.75;5012892;28;20068;-64
2024/03/14 04:28:55;;;;;;;22.08;13.90;;;;;;;-145.63;44.63;39143.53;5012919;28;20022;-66
2024/03/14 04:31:39;;;;;;;21.30;13.93;;;;;;;-145.63;44.14;39090.75;5017562;28;20033;-65
2024/03/14 04:34:09;;;;;;;25.40;14.88;;;;;;;-145.63;44.52;39122.03;5029490;28;20034;-64
2024/03/14 04:40:12;;;;;;;25.90;14.82;;;;;;;-145.63;44.48;39147.44;5012783;28;20495;-66
2024/03/14 04:42:58;;;;;;;27.27;13.73;;;;;;;-145.63;44.69;39098.56;5013031;28;20042;-63
2024/03/14 04:45:45;;;;;;;24.10;14.70;;;;;;;-145.63;45.98;39082.91;5012027;28;20030;-66
2024/03/14 04:48:17;;;;;;;23.48;14.55;;;;;;;-145.63;44.88;39086.81;4993531;28;20034;-64
2024/03/14 04:50:53;;;;;;;28.23;15.87;;;;;;;-145.63;45.51;39108.34;5010999;28;20080;-65
2024/03/14 04:53:18;;;;;;;23.05;14.77;;;;;;;-145.63;44.58;39110.28;5025702;28;20411;-65
2024/03/14 04:56:08;;;;;;;21.10;14.02;;;;;;;-145.63;45.06;39084.88;5013255;28;20033;-66
2024/03/14 04:58:41;;;;;;;21.67;14.48;;;;;;;-145.63;44.88;39098.56;5012807;28;20574;-66
2024/03/14 05:01:21;;;;;;;27.02;15.80;;;;;;;-145.63;45.28;39073.13;5008046;28;20033;-65
2024/03/14 05:03:50;;;;;;;27.92;14.48;;;;;;;-145.63;45.18;39104.44;4993463;28;20039;-64
2024/03/14 05:06:15;;;;;;;24.40;14.63;;;;;;;-145.63;45.00;39125.94;5013080;28;20060;-66
2024/03/14 05:08:44;;;;;;;22.08;14.43;;;;;;;-145.63;44.76;39098.56;5028385;28;20057;-66
2024/03/14 05:11:32;;;;;;;23.05;14.20;;;;;;;-145.63;45.51;39079.00;5035786;28;20049;-66
2024/03/14 05:16:54;;;;;;;22.10;13.88;;;;;;;-145.63;45.37;39102.47;5028143;28;20060;-65
2024/03/14 05:19:23;;;;;;;25.48;14.65;;;;;;;-145.63;44.47;39122.03;5012668;28;20033;-66
2024/03/14 05:21:50;;;;;;;26.10;15.93;;;;;;;-145.63;45.03;39112.25;5011163;28;20494;-65
2024/03/14 05:24:16;;;;;;;23.65;14.70;;;;;;;-145.63;45.17;39129.84;5012476;28;20026;-66
2024/03/14 05:26:43;;;;;;;22.15;15.23;;;;;;;-145.63;44.69;39098.56;5010240;28;20483;-66
2024/03/14 05:29:19;;;;;;;25.00;15.00;;;;;;;-145.63;44.30;39094.66;5004711;28;20041;-68
2024/03/14 05:32:11;;;;;;;26.98;15.15;;;;;;;-145.63;44.45;39096.59;5011233;28;20431;-67
2024/03/14 05:34:58;;;;;;;20.88;14.30;;;;;;;-145.63;43.88;39114.22;5009918;28;20101;-66
2024/03/14 05:37:39;;;;;;;29.70;16.33;;;;;;;-145.63;44.67;39122.03;5009557;28;20092;-66
2024/03/14 05:40:19;;;;;;;34.92;15.90;;;;;;;-145.63;44.40;39118.13;5011551;28;20030;-66
2024/03/14 05:45:38;;;;;;;22.48;14.90;;;;;;;-145.63;44.46;39096.59;5013526;28;20033;-66
2024/03/14 05:48:11;;;;;;;24.83;14.93;;;;;;;-145.63;44.57;39129.84;4997301;28;20034;-65
2024/03/14 05:50:52;;;;;;;27.60;15.05;;;;;;;-145.63;44.18;39120.06;5011536;28;20198;-66
2024/03/14 05:53:36;;;;;;;27.55;15.73;;;;;;;-145.63;43.97;39137.69;5015594;28;20088;-65
2024/03/14 05:56:08;;;;;;;30.38;16.02;;;;;;;-145.63;43.50;39131.81;4995387;28;20594;-66
2024/03/14 05:58:34;;;;;;;23.40;14.88;;;;;;;-145.63;43.68;39139.63;5000953;28;20117;-66
2024/03/14 06:07:05;;;;;;;22.23;14.48;;;;;;;-145.63;44.27;39125.94;5030619;28;20386;-65
2024/03/14 06:09:42;;;;;;;27.80;15.53;;;;;;;-145.63;43.54;39159.19;5015833;28;20030;-66
2024/03/14 06:12:19;;;;;;;23.77;15.30;;;;;;;-145.63;43.40;39145.50;5015218;28;20443;-66
2024/03/14 06:14:45;;;;;;;23.92;15.65;;;;;;;-145.63;43.28;39131.81;5015499;28;20057;-67
2024/03/14 06:17:12;;;;;;;25.90;15.70;;;;;;;-145.63;43.13;39123.97;5015319;28;20064;-66
2024/03/14 06:19:38;;;;;;;28.23;15.32;;;;;;;-145.63;43.30;39092.69;5021829;28;20030;-66
2024/03/14 06:22:09;;;;;;;27.52;15.57;;;;;;;-145.63;43.61;39129.84;5031626;28;20030;-66
2024/03/14 06:24:34;;;;;;;25.80;15.15;;;;;;;-145.63;43.13;39061.41;5015439;28;20482;-66
2024/03/14 06:27:02;;;;;;;25.73;14.68;;;;;;;-145.63;41.77;38996.88;5015466;28;20065;-66
2024/03/14 06:29:31;;;;;;;27.20;15.82;;;;;;;-145.63;41.20;39043.81;5044147;28;20040;-66
2024/03/14 06:32:05;;;;;;;24.65;15.10;;;;;;;-145.63;39.64;39039.88;5025729;28;20056;-65
2024/03/14 06:34:44;;;;;;;25.65;15.77;;;;;;;-145.63;38.59;39069.22;5015209;28;20046;-68
2024/03/14 06:37:12;;;;;;;26.20;14.25;;;;;;;-145.63;38.41;39141.59;5014933;28;20053;-66
2024/03/14 06:40:00;;;;;;;26.20;15.35;;;;;;;-145.63;38.69;39157.22;5014909;28;20036;-67
2024/03/14 06:42:35;;;;;;;22.27;15.18;;;;;;;-145.63;38.04;39165.06;5010543;28;20036;-67
2024/03/14 06:45:05;;;;;;;22.35;14.27;;;;;;;-145.63;38.14;39139.63;5012834;28;20463;-67
2024/03/14 06:51:16;;;;;;;26.85;15.60;;;;;;;-145.63;35.96;39106.38;5014499;28;20026;-67
2024/03/14 06:53:46;;;;;;;24.80;15.15;;;;;;;-145.63;34.83;39084.88;5014621;28;20053;-67
2024/03/14 06:56:23;;;;;;;;;;;;;;;-145.63;34.89;39123.97;5015044;28;20030;-68
2024/03/14 06:58:49;;;;;;;22.50;14.10;;;;;;;-145.63;34.29;39153.31;5014728;28;19910;-67
2024/03/14 07:01:18;;;;;;;22.65;14.57;;;;;;;-145.63;34.06;39100.50;5014347;28;20030;-66
2024/03/14 07:03:46;;;;;;;22.40;14.48;;;;;;;-145.63;33.13;39122.03;5014756;28;20022;-67
2024/03/14 07:06:14;;;;;;;25.13;14.35;;;;;;;-145.63;33.17;39145.50;5014311;28;20127;-66
2024/03/14 07:08:42;;;;;;;25.52;15.10;;;;;;;-145.63;32.32;39100.50;5014593;28;20026;-67
2024/03/14 07:11:15;;;;;;;23.85;14.82;;;;;;;-145.63;31.90;39149.41;5014360;28;20453;-66
2024/03/14 07:14:00;;;;;;;23.73;14.38;;;;;;;-145.63;32.27;39153.31;5021128;28;20140;-67
2024/03/14 07:16:49;;;;;;;22.55;14.88;;;;;;;-145.63;31.57;39122.03;5027735;28;20115;-68
2024/03/14 07:19:36;;;;;;;24.13;15.32;;;;;;;-145.63;31.63;39161.13;5014336;28;20044;-67
2024/03/14 07:25:15;;;;;;;24.90;14.80;;;;;;;-145.63;31.19;39129.84;5014526;28;20048;-68
2024/03/14 07:27:57;;;;;;;30.45;15.75;;;;;;;-145.63;30.72;39167.00;5014162;28;20125;-68
2024/03/14 07:30:25;;;;;;;27.13;15.07;;;;;;;-145.63;29.71;39206.13;4995121;28;20459;-67
2024/03/14 07:32:52;;;;;;;25.40;15.23;;;;;;;-145.63;29.94;39196.34;5010230;28;20030;-68
2024/03/14 07:35:21;;;;;;;23.92;14.85;;;;;;;-145.63;31.27;39223.72;5014175;28;20053;-68
2024/03/14 07:37:52;;;;;;;22.25;15.20;;;;;;;-145.63;29.16;39178.75;5013958;28;20034;-66
2024/03/14 07:40:32;;;;;;;25.60;14.60;;;;;;;-145.63;31.49;39180.69;5013739;28;20057;-66
2024/03/14 07:43:11;;;;;;;21.10;13.77;;;;;;;-145.63;31.33;39210.03;5013632;28;20041;-67
2024/03/14 07:45:52;;;;;;;27.70;13.93;;;;;;;-145.63;29.39;39178.75;5013755;28;20053;-68
2024/03/14 07:48:37;;;;;;;24.52;14.80;;;;;;;-145.63;28.28;39215.91;4994806;28;20041;-68
2024/03/14 07:51:04;;;;;;;23.50;14.57;;;;;;;-145.63;28.03;39178.75;5010991;28;20095;-69
2024/03/14 07:56:46;;;;;;;24.00;14.73;;;;;;;-145.63;29.38;39210.03;5013672;28;20084;-67
2024/03/14 07:59:17;;;;;;;25.10;14.77;;;;;;;-145.63;28.97;39208.06;5023773;28;20034;-66
2024/03/14 08:01:56;;;;;;;29.65;15.50;;;;;;;-145.63;29.27;39223.72;5026043;28;20034;-66
2024/03/14 08:04:48;;;;;;;23.42;15.05;;;;;;;-145.63;27.81;39208.06;5013618;28;20120;-67
2024/03/14 08:07:27;;;;;;;23.83;13.75;;;;;;;-145.63;28.58;39225.69;5013329;28;20068;-68
2024/03/14 08:10:14;;;;;;;20.77;13.45;;;;;;;-145.63;29.15;39223.72;5012348;28;20034;-66
2024/03/14 08:13:35;;;;;;;20.65;13.35;;;;;;;-145.63;29.55;39186.56;5021191;28;20092;-67
2024/03/14 08:19:21;;;;;;;21.80;13.50;;;;;;;-145.63;29.85;39247.19;5008705;28;20121;-70
2024/03/14 08:21:52;;;;;;;24.17;13.77;;;;;;;-145.63;29.57;39219.81;5013276;28;20025;-70
2024/03/14 08:24:40;;;;;;;20.42;12.15;;;;;;;-145.63;29.19;39219.81;5013278;28;20049;-70
2024/03/14 08:27:19;;;;;;;20.73;13.10;;;;;;;-145.63;29.04;39198.31;5013098;28;20030;-67
2024/03/14 08:33:10;;;;;;;20.92;12.80;;;;;;;-145.63;28.73;39202.22;5012928;28;20034;-67
2024/03/14 08:35:42;;;;;;;20.38;12.15;;;;;;;-145.63;28.70;39241.31;5012787;28;20387;-65
2024/03/14 08:38:13;;;;;;;19.88;12.50;;;;;;;-145.63;29.21;39223.72;5012579;28;20057;-66
2024/03/14 08:40:51;;;;;;;19.73;11.82;;;;;;;-145.63;28.37;39241.31;5012846;28;20049;-66
2024/03/14 08:43:23;;;;;;;17.38;11.90;;;;;;;-145.63;28.89;39251.09;5012570;28;20066;-66
2024/03/14 08:46:08;;;;;;;17.10;11.85;;;;;;;-145.63;28.73;39223.72;5011410;28;20064;-65
2024/03/14 08:48:51;;;;;;;17.88;11.30;;;;;;;-145.63;29.07;39225.69;4993125;28;20031;-65
2024/03/14 08:51:38;;;;;;;17.75;11.65;;;;;;;-145.63;29.09;39237.41;5010816;28;20100;-65
2024/03/14 08:57:25;;;;;;;16.20;10.77;;;;;;;-145.63;30.28;39219.81;5012884;28;20036;-67
2024/03/14 09:02:54;;;;;;;15.88;10.05;;;;;;;-145.63;29.97;39200.25;5025997;28;20033;-67
2024/03/14 09:05:29;;;;;;;14.98;9.68;;;;;;;-145.63;30.34;39227.63;5019803;28;20038;-66
2024/03/14 09:07:56;;;;;;;15.75;10.02;;;;;;;-145.63;28.58;39237.41;5012616;28;20092;-66
2024/03/14 09:10:25;;;;;;;15.07;10.25;;;;;;;-145.63;29.54;39178.75;5010815;28;20398;-66
2024/03/14 09:12:56;;;;;;;13.43;8.98;;;;;;;-145.63;29.58;39184.59;5015365;28;20069;-67
2024/03/14 09:16:06;;;;;;;13.95;8.90;;;;;;;-145.63;30.38;39221.78;4997793;28;20089;-71
2024/03/14 09:18:55;;;;;;;13.90;8.88;;;;;;;-145.63;28.78;39235.47;4996790;28;20037;-66
2024/03/14 09:21:33;;;;;;;17.27;9.27;;;;;;;-145.63;28.86;39235.47;5015532;28;20064;-66
2024/03/14 09:24:16;;;;;;;13.90;8.90;;;;;;;-145.63;29.82;39206.13;5015968;28;20034;-66
2024/03/14 09:26:42;;;;;;;15.55;10.07;;;;;;;-145.63;29.78;39208.06;5016337;28;20471;-65
2024/03/14 09:29:23;;;;;;;18.10;10.13;;;;;;;-145.63;29.29;39239.38;5015997;28;20068;-66
2024/03/14 09:32:29;;;;;;;16.63;11.23;;;;;;;-145.63;28.71;39202.22;5015906;28;20117;-67
2024/03/14 09:34:58;;;;;;;22.73;12.32;;;;;;;-145.63;28.45;39315.66;5016041;28;20049;-67
2024/03/14 09:37:26;;;;;;;16.58;11.18;;;;;;;-145.63;28.46;39223.72;5014713;28;20026;-67
2024/03/14 09:39:58;;;;;;;20.80;12.07;;;;;;;-145.63;28.50;39264.78;5015974;28;20398;-66
2024/03/14 09:42:47;;;;;;;22.15;13.05;;;;;;;-145.63;28.16;39235.47;5014414;28;20803;-66
2024/03/14 09:45:35;;;;;;;26.58;15.68;;;;;;;-145.63;30.51;39225.69;5033473;28;20037;-66
2024/03/14 09:48:34;;;;;;;24.00;14.75;;;;;;;-145.63;29.71;39270.66;5019350;28;20144;-67
2024/03/14 09:51:04;;;;;;;27.02;15.45;;;;;;;-145.63;29.95;39272.63;5015956;28;20040;-67
2024/03/14 09:53:35;;;;;;;26.20;15.00;;;;;;;-145.63;29.83;39268.72;5015732;28;20029;-67
2024/03/14 09:56:04;;;;;;;23.63;15.40;;;;;;;-145.63;29.61;39239.38;5015904;28;20113;-66
2024/03/14 09:58:33;;;;;;;23.02;14.77;;;;;;;-145.63;30.86;39258.94;5014349;28;20127;-64
2024/03/14 10:01:32;;;;;;;26.00;15.10;;;;;;;-145.63;31.17;39262.84;5017500;28;20060;-67
2024/03/14 10:07:23;;;;;;;27.63;15.32;;;;;;;-145.63;30.63;39262.84;5015320;28;20030;-66
2024/03/14 10:09:55;;;;;;;26.25;16.25;;;;;;;-145.63;31.11;39255.00;5021895;28;20022;-65
2024/03/14 10:12:23;;;;;;;24.77;15.75;;;;;;;-145.63;30.78;39266.75;5034811;28;20025;-66
2024/03/14 10:15:16;;;;;;;22.88;15.10;;;;;;;-145.63;31.14;39251.09;5034939;28;20483;-70
2024/03/14 10:17:48;;;;;;;27.10;15.15;;;;;;;-145.63;30.51;39262.84;5034994;28;20044;-68
2024/03/14 10:20:38;;;;;;;21.27;13.35;;;;;;;-145.63;30.78;39260.88;5024574;28;20041;-68
2024/03/14 10:23:06;;;;;;;24.60;13.93;;;;;;;-145.63;30.20;39229.59;5014715;28;20026;-69
2024/03/14 10:25:40;;;;;;;20.20;13.13;;;;;;;-145.63;30.84;39264.78;5023707;28;20095;-69
2024/03/14 10:28:17;;;;;;;22.27;13.32;;;;;;;-145.63;30.05;39239.38;5034536;28;20569;-69
2024/03/14 10:31:02;;;;;;;23.10;12.20;;;;;;;-145.63;30.95;39253.06;5035111;28;20033;-66
2024/03/14 10:33:47;;;;;;;18.30;11.30;;;;;;;-145.63;30.76;39256.97;4995995;28;20107;-67
2024/03/14 10:36:41;;;;;;;16.92;11.35;;;;;;;-145.63;30.14;39253.06;5013080;28;20042;-66
2024/03/14 10:39:16;;;;;;;19.02;11.63;;;;;;;-145.63;29.95;39284.34;5014632;28;20081;-68
2024/03/14 10:41:47;;;;;;;22.08;11.98;;;;;;;-145.63;29.38;39296.09;5015973;28;20033;-66
2024/03/14 10:44:19;;;;;;;;;;;;;;;-145.63;30.17;39270.66;5034751;28;20033;-66
2024/03/14 10:46:54;;;;;;;17.17;10.40;;;;;;;-145.63;29.63;39268.72;5029222;28;19909;-64
2024/03/14 10:53:00;;;;;;;16.45;10.27;;;;;;;-145.63;28.68;39223.72;4996929;28;20439;-66
2024/03/14 10:56:21;;;;;;;16.52;9.95;;;;;;;-145.63;28.62;39266.75;5014726;28;20056;-66
2024/03/14 10:59:06;;;;;;;22.27;9.98;;;;;;;-145.63;29.52;39270.66;5014312;28;20041;-64
2024/03/14 11:01:50;;;;;;;16.08;8.90;;;;;;;-145.63;28.50;39067.28;5014250;28;20356;-65
2024/03/14 11:04:17;;;;;;;17.30;9.73;;;;;;;-145.63;29.00;39243.28;5013917;28;20030;-66
2024/03/14 11:06:54;;;;;;;14.75;9.48;;;;;;;-145.63;28.13;39255.00;5011807;28;20455;-66
2024/03/14 11:09:57;;;;;;;18.50;9.95;;;;;;;-145.63;28.21;39286.31;5012062;28;20036;-67
2024/03/14 11:13:19;;;;;;;12.73;8.65;;;;;;;-145.63;27.92;39276.53;5014450;28;20490;-68
2024/03/14 11:16:01;;;;;;;12.13;8.18;;;;;;;-145.63;28.33;39262.84;4994562;28;20050;-70
2024/03/14 11:24:39;;;;;;;15.73;8.35;;;;;;;-145.63;27.54;39264.78;4994007;28;20117;-64
2024/03/14 11:33:52;;;;;;;16.23;8.77;;;;;;;-145.63;27.68;39258.94;5030855;28;20418;-66
2024/03/14 11:36:40;;;;;;;15.35;8.85;;;;;;;-145.63;27.97;38695.72;5012915;28;20045;-65
2024/03/14 11:39:26;;;;;;;15.60;8.95;;;;;;;-145.63;28.13;39233.50;5022487;28;20094;-65
2024/03/14 11:42:32;;;;;;;14.35;9.05;;;;;;;-145.63;27.66;39270.66;5048430;28;20091;-65
2024/03/14 11:45:31;;;;;;;14.15;8.65;;;;;;;-145.63;27.51;39239.38;5018726;28;20037;-65
2024/03/14 11:48:02;;;;;;;13.88;8.35;;;;;;;-145.63;28.45;39296.09;5027634;28;20474;-65
2024/03/14 11:50:36;;;;;;;15.77;9.13;;;;;;;-145.63;27.86;39286.31;5022562;28;20034;-64
2024/03/14 11:53:02;;;;;;;13.82;8.68;;;;;;;-145.63;27.83;39272.63;5013439;28;20483;-66
2024/03/14 11:55:38;;;;;;;13.32;8.20;;;;;;;-145.63;27.53;39266.75;5011974;28;20026;-65
2024/03/14 12:05:19;;;;;;;16.23;8.90;;;;;;;-145.63;27.05;39280.44;5037848;28;20044;-66
2024/03/14 12:08:03;;;;;;;15.55;8.88;;;;;;;-145.63;27.92;39292.19;5027865;28;20033;-66
2024/03/14 12:10:35;;;;;;;13.68;8.57;;;;;;;-145.63;27.08;39294.13;5012840;28;20030;-67
2024/03/14 12:21:06;;;;;;;16.30;9.40;;;;;;;-145.63;26.70;39262.84;5023853;28;20092;-69
2024/03/14 12:23:34;;;;;;;12.52;8.68;;;;;;;-145.63;27.13;39290.22;5014608;28;20028;-66
2024/03/14 12:26:07;;;;;;;13.23;8.37;;;;;;;-145.63;26.46;39264.78;5025636;28;20026;-67
2024/03/14 12:32:22;;;;;;;13.05;7.88;;;;;;;-145.63;26.12;39278.47;5013328;28;20053;-66
2024/03/14 12:35:34;;;;;;;11.13;7.65;;;;;;;-145.63;25.84;39313.69;5011240;28;20096;-66
2024/03/14 12:38:28;;;;;;;14.13;8.35;;;;;;;-145.63;26.04;39262.84;5010193;28;20504;-66
2024/03/14 12:41:34;;;;;;;11.77;7.28;;;;;;;-145.63;26.29;39262.84;5032194;28;20037;-66
2024/03/14 12:44:00;;;;;;;13.48;7.53;;;;;;;-145.63;26.83;39298.03;5032392;28;20112;-66
2024/03/14 12:50:28;;;;;;;16.10;7.70;;;;;;;-145.63;25.45;39288.25;5022593;28;20041;-66
2024/03/14 12:53:22;;;;;;;13.40;8.20;;;;;;;-145.63;25.42;39286.31;5024981;28;20060;-67
2024/03/14 12:55:58;;;;;;;12.10;8.35;;;;;;;-145.63;26.53;39272.63;5026649;28;20073;-67
2024/03/14 12:58:33;;;;;;;11.80;7.40;;;;;;;-145.63;26.17;39296.09;5016400;28;20041;-68
2024/03/14 13:01:01;;;;;;;13.85;7.38;;;;;;;-145.63;25.65;39280.44;5032586;28;20501;-69
2024/03/14 13:03:58;;;;;;;11.38;8.10;;;;;;;-145.63;24.66;39294.13;5034896;28;20040;-69
2024/03/14 13:09:51;;;;;;;11.48;6.70;;;;;;;-145.63;24.45;39301.94;5032977;28;20371;-67
2024/03/14 13:12:40;;;;;;;18.58;6.65;;;;;;;-145.63;24.35;39255.00;5019159;28;20124;-68
2024/03/14 13:15:22;;;;;;;9.93;6.10;;;;;;;-145.63;24.17;39305.88;5032594;28;20030;-66
2024/03/14 13:17:49;;;;;;;13.25;6.25;;;;;;;-145.63;23.96;39315.66;5023582;28;20037;-67
2024/03/14 13:20:27;;;;;;;10.80;6.38;;;;;;;-145.63;24.48;39303.91;5015915;28;20029;-67
2024/03/14 13:23:16;;;;;;;11.48;7.10;;;;;;;-145.63;24.10;39278.47;5016575;28;20376;-66
2024/03/14 13:25:48;;;;;;;11.77;7.35;;;;;;;-145.63;24.06;39268.72;5040552;28;20424;-69
2024/03/14 13:28:19;;;;;;;11.75;7.07;;;;;;;-145.63;23.91;39288.25;5035854;28;20112;-68
2024/03/14 13:30:45;;;;;;;12.63;6.68;;;;;;;-145.63;23.80;39270.66;4996982;28;20042;-67
2024/03/14 13:33:30;;;;;;;14.02;7.18;;;;;;;-145.63;24.10;39284.34;5011762;28;20368;-68
2024/03/14 13:36:00;;;;;;;22.23;14.55;;;;;;;-145.63;24.19;39292.19;5016025;28;20049;-67